createdAt,value
2018-06-14T11:30:54.781Z,15.30
2018-06-14T11:33:22.952Z,15.80
2018-06-14T11:35:51.112Z,16.00
2018-06-14T11:38:19.280Z,16.20
2018-06-14T11:40:47.450Z,16.40
2018-06-14T11:43:15.639Z,16.70
2018-06-14T11:45:43.812Z,17.00
2018-06-14T11:48:12.105Z,17.40
2018-06-14T11:50:40.289Z,17.60
2018-06-14T11:53:08.492Z,17.70
2018-06-14T11:55:36.687Z,17.80
2018-06-14T11:58:05.233Z,17.70
2018-06-14T12:00:33.413Z,17.70
2018-06-14T12:03:01.625Z,17.60
2018-06-14T12:05:29.814Z,17.60
2018-06-14T12:10:25.933Z,18.10
2018-06-14T12:12:54.121Z,18.30
2018-06-14T12:15:22.287Z,18.50
2018-06-14T12:17:50.494Z,18.70
2018-06-14T12:20:18.687Z,18.80
2018-06-14T12:22:46.860Z,19.10
2018-06-14T12:25:15.026Z,19.30
2018-06-14T12:27:43.213Z,19.50
2018-06-14T12:30:11.397Z,19.70
2018-06-14T12:32:39.584Z,19.90
2018-06-14T12:35:07.762Z,19.90
2018-06-14T12:37:35.951Z,19.90
2018-06-14T12:40:04.109Z,20.00
2018-06-14T12:42:32.295Z,20.20
2018-06-14T12:45:00.464Z,20.20
2018-06-14T12:47:28.641Z,20.30
2018-06-14T12:52:24.844Z,20.10
2018-06-14T12:54:52.942Z,19.90
2018-06-14T12:57:21.200Z,19.70
2018-06-14T12:59:49.365Z,19.60
2018-06-14T13:02:17.546Z,19.40
2018-06-14T13:04:45.726Z,19.30
2018-06-14T13:07:13.921Z,19.20
2018-06-14T13:09:42.091Z,19.20
2018-06-14T13:12:10.298Z,19.20
2018-06-14T13:14:38.456Z,19.10
2018-06-14T13:17:06.657Z,19.20
2018-06-14T13:19:34.833Z,19.30
2018-06-14T13:22:03.031Z,19.40
2018-06-14T13:24:42.869Z,19.30
2018-06-14T13:27:12.319Z,19.20
2018-06-14T13:29:41.034Z,19.00
2018-06-14T13:32:09.366Z,18.90
2018-06-14T13:37:05.986Z,19.20
2018-06-14T13:39:34.168Z,19.30
2018-06-14T13:42:02.666Z,19.20
2018-06-14T13:44:30.831Z,19.10
2018-06-14T13:46:58.997Z,19.00
2018-06-14T13:49:27.184Z,19.00
2018-06-14T13:51:55.357Z,18.90
2018-06-14T13:54:23.532Z,18.90
2018-06-14T13:56:51.724Z,18.90
2018-06-14T13:59:19.887Z,18.90
2018-06-14T14:01:48.051Z,18.90
2018-06-14T14:04:16.224Z,18.90
2018-06-14T14:06:44.378Z,19.10
2018-06-14T14:09:13.181Z,19.20
2018-06-14T14:11:41.757Z,19.20
2018-06-14T14:14:09.949Z,19.40
2018-06-14T14:16:38.405Z,19.70
2018-06-14T14:19:06.576Z,19.90
2018-06-14T14:21:34.770Z,20.00
2018-06-14T14:24:02.952Z,20.10
2018-06-14T14:26:31.155Z,20.40
2018-06-14T14:28:59.337Z,20.60
2018-06-14T14:31:27.604Z,20.80
2018-06-14T14:33:55.760Z,20.70
2018-06-14T14:36:23.991Z,20.60
2018-06-14T14:38:52.177Z,20.40
2018-06-14T14:41:20.353Z,20.30
2018-06-14T14:46:16.510Z,20.00
2018-06-14T14:48:44.768Z,19.90
2018-06-14T14:51:12.966Z,19.80
2018-06-14T14:53:41.172Z,19.70
2018-06-14T14:56:09.373Z,19.60
2018-06-14T14:58:37.549Z,19.50
2018-06-14T15:01:05.718Z,19.50
2018-06-14T15:03:33.895Z,19.50
2018-06-14T15:06:02.087Z,19.70
2018-06-14T15:08:30.278Z,20.10
2018-06-14T15:10:58.437Z,20.50
2018-06-14T15:13:26.614Z,21.10
2018-06-14T15:15:54.807Z,22.00
2018-06-14T15:18:22.984Z,23.20
2018-06-14T15:20:51.250Z,24.90
2018-06-14T15:23:19.426Z,26.80
2018-06-14T15:25:47.600Z,28.80
2018-06-14T15:28:15.774Z,30.80
2018-06-14T15:30:43.969Z,32.70
2018-06-14T15:33:12.142Z,34.30
2018-06-14T15:35:40.352Z,35.60
2018-06-14T15:38:08.519Z,36.70
2018-06-14T15:40:36.797Z,37.50
2018-06-14T15:43:05.012Z,38.10
2018-06-14T15:45:33.378Z,38.80
2018-06-14T15:48:01.702Z,39.20
2018-06-14T15:50:30.332Z,39.60
2018-06-14T15:52:58.497Z,39.70
2018-06-14T15:55:42.434Z,38.90
2018-06-14T15:58:10.644Z,37.90
2018-06-14T16:00:38.842Z,36.10
2018-06-14T16:03:07.029Z,34.20
2018-06-14T16:08:03.396Z,30.50
2018-06-14T16:10:31.601Z,28.90
2018-06-14T16:12:59.753Z,27.60
2018-06-14T16:15:27.937Z,26.60
2018-06-14T16:17:56.282Z,25.80
2018-06-14T16:20:24.482Z,25.20
2018-06-14T16:22:52.663Z,24.60
2018-06-14T16:25:20.847Z,24.20
2018-06-14T16:27:49.024Z,23.80
2018-06-14T16:30:17.204Z,23.50
2018-06-14T16:32:45.368Z,23.20
2018-06-14T16:35:13.542Z,23.00
2018-06-14T16:37:41.733Z,22.80
2018-06-14T16:40:09.916Z,22.70
2018-06-14T16:42:38.078Z,22.60
2018-06-14T16:45:06.328Z,22.50
2018-06-14T16:47:34.501Z,22.30
2018-06-14T16:50:02.685Z,22.20
2018-06-14T16:52:30.872Z,22.10
2018-06-14T16:54:59.043Z,22.00
2018-06-14T16:57:27.241Z,21.80
2018-06-14T16:59:55.437Z,21.70
2018-06-14T17:02:23.707Z,21.60
2018-06-14T17:04:51.954Z,21.50
2018-06-14T17:07:20.102Z,21.30
2018-06-14T17:09:48.274Z,21.20
2018-06-14T17:12:16.459Z,21.10
2018-06-14T17:14:44.661Z,21.00
2018-06-14T17:17:12.824Z,20.90
2018-06-14T17:19:41.020Z,20.80
2018-06-14T17:22:09.216Z,20.70
2018-06-14T17:24:37.404Z,20.50
2018-06-14T17:27:05.772Z,20.40
2018-06-14T17:29:34.020Z,20.40
2018-06-14T17:32:02.309Z,20.20
2018-06-14T17:34:30.565Z,20.10
2018-06-14T17:36:59.236Z,19.90
2018-06-14T17:39:27.705Z,19.70
2018-06-14T17:41:55.879Z,19.50
2018-06-14T17:44:24.058Z,19.30
2018-06-14T17:46:52.250Z,19.20
2018-06-14T17:49:20.448Z,19.00
2018-06-14T17:51:48.640Z,18.90
2018-06-14T17:54:16.821Z,18.70
2018-06-14T17:56:45.160Z,18.60
2018-06-14T17:59:13.454Z,18.40
2018-06-14T18:01:41.652Z,18.30
2018-06-14T18:04:09.821Z,18.10
2018-06-14T18:06:38.127Z,17.90
2018-06-14T18:09:07.842Z,17.80
2018-06-14T18:11:36.037Z,17.60
2018-06-14T18:14:04.998Z,17.50
2018-06-14T18:16:33.308Z,17.30
2018-06-14T18:19:01.481Z,17.20
2018-06-14T18:21:29.754Z,17.10
2018-06-14T18:23:58.007Z,16.90
2018-06-14T18:26:26.152Z,16.80
2018-06-14T18:28:54.838Z,16.60
2018-06-14T18:31:23.017Z,16.60
2018-06-14T18:33:51.202Z,16.40
2018-06-14T18:36:19.872Z,16.30
2018-06-14T18:38:48.046Z,16.30
2018-06-14T18:41:16.263Z,16.10
2018-06-14T18:43:44.452Z,16.00
2018-06-14T18:46:12.653Z,15.90
2018-06-14T18:48:43.594Z,15.80
2018-06-14T18:51:12.997Z,15.70
2018-06-14T18:53:41.182Z,15.60
2018-06-14T18:56:09.396Z,15.50
2018-06-14T18:58:37.629Z,15.40
2018-06-14T19:01:05.974Z,15.30
2018-06-14T19:03:34.154Z,15.20
2018-06-14T19:06:02.344Z,15.10
2018-06-14T19:08:30.580Z,15.00
2018-06-14T19:10:58.755Z,15.00
2018-06-14T19:13:26.965Z,15.00
2018-06-14T19:15:55.143Z,15.00
2018-06-14T19:18:23.374Z,15.00
2018-06-14T19:20:51.559Z,14.90
2018-06-14T19:23:19.781Z,14.90
2018-06-14T19:25:47.957Z,14.90
2018-06-14T19:28:16.218Z,14.90
2018-06-14T19:30:44.417Z,14.80
2018-06-14T19:33:12.620Z,14.80
2018-06-14T19:35:40.804Z,14.80
2018-06-14T19:38:08.994Z,14.70
2018-06-14T19:40:37.413Z,14.70
2018-06-14T19:43:05.608Z,14.60
2018-06-14T19:45:33.816Z,14.60
2018-06-14T19:48:02.014Z,14.50
2018-06-14T19:50:30.293Z,14.50
2018-06-14T19:52:58.500Z,14.50
2018-06-14T19:55:26.700Z,14.40
2018-06-14T19:57:54.892Z,14.30
2018-06-14T20:00:24.592Z,14.20
2018-06-14T20:02:52.836Z,14.20
2018-06-14T20:05:21.503Z,14.10
2018-06-14T20:07:49.701Z,14.00
2018-06-14T20:10:17.881Z,14.00
2018-06-14T20:12:46.072Z,13.90
2018-06-14T20:15:14.240Z,13.80
2018-06-14T20:17:42.436Z,13.70
2018-06-14T20:20:11.029Z,13.60
2018-06-14T20:22:39.232Z,13.60
2018-06-14T20:25:07.398Z,13.50
2018-06-14T20:27:35.605Z,13.40
2018-06-14T20:30:03.825Z,13.40
2018-06-14T20:32:31.989Z,13.30
2018-06-14T20:35:00.205Z,13.30
2018-06-14T20:37:28.373Z,13.20
2018-06-14T20:39:56.568Z,13.10
2018-06-14T20:42:24.752Z,13.10
2018-06-14T20:44:52.920Z,13.00
2018-06-14T20:47:21.109Z,12.90
2018-06-14T20:49:49.554Z,12.90
2018-06-14T20:52:17.739Z,12.90
2018-06-14T20:54:45.929Z,12.80
2018-06-14T20:57:14.130Z,12.80
2018-06-14T20:59:42.317Z,12.70
2018-06-14T21:02:10.505Z,12.70
2018-06-14T21:04:38.709Z,12.70
2018-06-14T21:07:07.147Z,12.70
2018-06-14T21:09:35.495Z,12.70
2018-06-14T21:12:03.716Z,12.70
2018-06-14T21:14:31.913Z,12.60
2018-06-14T21:17:00.545Z,12.60
2018-06-14T21:19:28.727Z,12.60
2018-06-14T21:21:56.905Z,12.60
2018-06-14T21:24:25.084Z,12.50
2018-06-14T21:26:53.272Z,12.50
2018-06-14T21:29:21.597Z,12.50
2018-06-14T21:31:52.574Z,12.50
2018-06-14T21:34:20.811Z,12.50
2018-06-14T21:36:48.984Z,12.50
2018-06-14T21:39:17.168Z,12.50
2018-06-14T21:41:45.516Z,12.50
2018-06-14T21:44:13.679Z,12.50
2018-06-14T21:46:41.872Z,12.60
2018-06-14T21:49:10.139Z,12.60
2018-06-14T21:51:38.312Z,12.60
2018-06-14T21:56:34.494Z,12.70
2018-06-14T21:59:03.019Z,12.70
2018-06-14T22:01:31.618Z,12.80
2018-06-14T22:04:02.062Z,12.80
2018-06-14T22:06:30.630Z,12.80
2018-06-14T22:08:59.309Z,12.80
2018-06-14T22:11:27.500Z,12.80
2018-06-14T22:13:55.714Z,12.70
2018-06-14T22:16:24.344Z,12.70
2018-06-14T22:18:52.525Z,12.70
2018-06-14T22:21:20.718Z,12.60
2018-06-14T22:23:48.907Z,12.60
2018-06-14T22:26:17.100Z,12.60
2018-06-14T22:28:45.281Z,12.50
2018-06-14T22:31:13.468Z,12.50
2018-06-14T22:33:52.828Z,12.50
2018-06-14T22:36:20.996Z,12.40
2018-06-14T22:38:49.168Z,12.40
2018-06-14T22:41:17.363Z,12.40
2018-06-14T22:43:45.538Z,12.30
2018-06-14T22:46:13.716Z,12.30
2018-06-14T22:48:41.894Z,12.20
2018-06-14T22:51:18.116Z,12.20
2018-06-14T22:58:42.599Z,12.10
2018-06-14T23:01:48.986Z,12.10
2018-06-14T23:04:25.945Z,12.00
2018-06-14T23:06:54.244Z,12.00
2018-06-14T23:10:33.589Z,12.00
2018-06-14T23:13:02.015Z,11.90
2018-06-14T23:15:30.235Z,11.90
2018-06-14T23:17:58.599Z,11.90
2018-06-14T23:20:27.796Z,11.80
2018-06-14T23:22:57.011Z,11.80
2018-06-14T23:25:26.084Z,11.80
2018-06-14T23:27:54.326Z,11.80
2018-06-14T23:30:22.548Z,11.70
2018-06-14T23:32:51.229Z,11.70
2018-06-14T23:35:19.618Z,11.60
2018-06-14T23:37:47.797Z,11.60
2018-06-14T23:40:15.993Z,11.60
2018-06-14T23:42:44.169Z,11.60
2018-06-14T23:45:12.300Z,11.60
2018-06-14T23:47:40.468Z,11.60
2018-06-14T23:50:08.747Z,11.50
2018-06-14T23:52:36.893Z,11.50
2018-06-14T23:55:05.037Z,11.50
2018-06-14T23:57:33.172Z,11.40
